createdAt,value
2019-05-01T00:00:44.063Z,7.04
2019-05-01T00:01:44.239Z,7.07
2019-05-01T00:02:44.412Z,7.10
2019-05-01T00:03:44.588Z,7.13
2019-05-01T00:04:44.745Z,7.10
2019-05-01T00:05:44.907Z,6.96
2019-05-01T00:06:45.094Z,7.01
2019-05-01T00:07:45.265Z,7.00
2019-05-01T00:08:45.420Z,6.95
2019-05-01T00:09:45.601Z,6.90
2019-05-01T00:10:45.757Z,6.83
2019-05-01T00:11:45.922Z,6.85
2019-05-01T00:12:46.090Z,6.77
2019-05-01T00:13:46.232Z,6.72
2019-05-01T00:14:46.369Z,6.65
2019-05-01T00:15:46.533Z,6.57
2019-05-01T00:16:46.733Z,6.80
2019-05-01T00:17:46.906Z,6.78
2019-05-01T00:18:47.083Z,6.75
2019-05-01T00:19:47.245Z,6.72
2019-05-01T00:20:47.409Z,6.80
2019-05-01T00:21:47.617Z,6.74
2019-05-01T00:22:47.783Z,6.78
2019-05-01T00:23:47.966Z,6.74
2019-05-01T00:24:48.134Z,6.71
2019-05-01T00:25:48.307Z,6.80
2019-05-01T00:26:48.502Z,6.77
2019-05-01T00:27:48.701Z,6.62
2019-05-01T00:28:48.899Z,6.68
2019-05-01T00:29:49.059Z,6.64
2019-05-01T00:30:49.261Z,6.53
2019-05-01T00:31:49.440Z,6.44
2019-05-01T00:32:49.604Z,6.44
2019-05-01T00:33:49.806Z,6.52
2019-05-01T00:34:49.982Z,6.54
2019-05-01T00:35:50.162Z,6.53
2019-05-01T00:36:50.326Z,6.53
2019-05-01T00:37:50.495Z,6.53
2019-05-01T00:38:50.668Z,6.60
2019-05-01T00:39:50.848Z,6.44
2019-05-01T00:40:51.009Z,6.50
2019-05-01T00:41:51.159Z,6.64
2019-05-01T00:42:51.364Z,6.53
2019-05-01T00:43:51.579Z,6.52
2019-05-01T00:44:51.679Z,6.43
2019-05-01T00:45:51.842Z,6.44
2019-05-01T00:46:52.010Z,6.41
2019-05-01T00:47:52.196Z,6.41
2019-05-01T00:48:52.401Z,6.47
2019-05-01T00:49:52.577Z,6.39
2019-05-01T00:50:52.778Z,6.36
2019-05-01T00:51:52.956Z,6.46
2019-05-01T00:52:53.153Z,6.52
2019-05-01T00:53:53.355Z,6.50
2019-05-01T00:54:53.534Z,6.38
2019-05-01T00:55:53.711Z,6.47
2019-05-01T00:56:53.885Z,6.39
2019-05-01T00:57:54.047Z,6.16
2019-05-01T00:58:54.271Z,6.20
2019-05-01T00:59:54.445Z,6.26
2019-05-01T01:00:54.651Z,6.31
2019-05-01T01:01:54.822Z,6.39
2019-05-01T01:02:54.977Z,6.25
2019-05-01T01:03:55.122Z,6.32
2019-05-01T01:04:55.330Z,6.31
2019-05-01T01:05:55.535Z,6.32
2019-05-01T01:06:55.707Z,6.41
2019-05-01T01:07:55.874Z,6.49
2019-05-01T01:08:56.044Z,6.29
2019-05-01T01:09:56.205Z,6.31
2019-05-01T01:10:56.421Z,6.29
2019-05-01T01:11:56.618Z,6.25
2019-05-01T01:12:56.823Z,6.01
2019-05-01T01:13:57.014Z,6.06
2019-05-01T01:14:57.199Z,6.16
2019-05-01T01:15:57.369Z,6.06
2019-05-01T01:16:57.578Z,6.05
2019-05-01T01:17:57.758Z,6.10
2019-05-01T01:18:57.911Z,6.07
2019-05-01T01:19:58.067Z,6.07
2019-05-01T01:20:59.221Z,5.98
2019-05-01T01:21:58.389Z,5.98
2019-05-01T01:22:58.535Z,5.91
2019-05-01T01:23:58.694Z,5.92
2019-05-01T01:24:58.850Z,5.90
2019-05-01T01:26:00.042Z,5.94
2019-05-01T01:26:59.149Z,5.95
2019-05-01T01:27:59.303Z,5.94
2019-05-01T01:28:59.465Z,5.92
2019-05-01T01:29:59.637Z,5.95
2019-05-01T01:30:59.805Z,5.99
2019-05-01T01:31:59.980Z,5.95
2019-05-01T01:33:00.200Z,5.87
2019-05-01T01:34:00.377Z,5.90
2019-05-01T01:35:00.564Z,5.91
2019-05-01T01:36:00.716Z,5.84
2019-05-01T01:37:00.880Z,5.81
2019-05-01T01:38:01.056Z,5.77
2019-05-01T01:39:01.227Z,5.81
2019-05-01T01:40:01.457Z,5.67
2019-05-01T01:41:01.651Z,5.70
2019-05-01T01:42:01.818Z,5.58
2019-05-01T01:43:02.009Z,5.55
2019-05-01T01:44:02.200Z,5.65
2019-05-01T01:45:02.396Z,5.58
2019-05-01T01:46:02.573Z,5.59
2019-05-01T01:47:02.735Z,5.69
2019-05-01T01:48:02.949Z,5.76
2019-05-01T01:49:03.126Z,5.72
2019-05-01T01:50:03.320Z,5.67
2019-05-01T01:51:03.480Z,5.67
2019-05-01T01:52:03.672Z,5.72
2019-05-01T01:53:03.856Z,5.56
2019-05-01T01:54:05.064Z,5.51
2019-05-01T01:55:04.241Z,5.70
2019-05-01T01:56:04.436Z,5.73
2019-05-01T01:57:04.633Z,5.59
2019-05-01T01:58:04.841Z,5.67
2019-05-01T01:59:05.034Z,5.65
2019-05-01T02:00:05.259Z,5.56
2019-05-01T02:01:09.564Z,5.59
2019-05-01T02:02:06.586Z,5.52
2019-05-01T02:03:05.757Z,5.59
2019-05-01T02:04:05.964Z,5.58
2019-05-01T02:05:06.196Z,5.49
2019-05-01T02:06:06.404Z,5.43
2019-05-01T02:07:06.608Z,5.47
2019-05-01T02:08:08.932Z,5.38
2019-05-01T02:09:07.007Z,5.36
2019-05-01T02:10:07.288Z,5.36
2019-05-01T02:11:07.440Z,5.28
2019-05-01T02:12:07.648Z,5.28
2019-05-01T02:13:07.908Z,5.36
2019-05-01T02:14:08.093Z,5.44
2019-05-01T02:15:09.308Z,5.41
2019-05-01T02:16:08.473Z,5.52
2019-05-01T02:17:08.664Z,5.51
2019-05-01T02:18:08.896Z,5.41
2019-05-01T02:19:09.070Z,5.47
2019-05-01T02:20:10.229Z,5.56
2019-05-01T02:21:09.475Z,5.47
2019-05-01T02:22:09.632Z,5.38
2019-05-01T02:23:09.838Z,5.31
2019-05-01T02:24:09.987Z,5.28
2019-05-01T02:25:10.156Z,5.25
2019-05-01T02:26:10.292Z,5.31
2019-05-01T02:27:10.424Z,5.18
2019-05-01T02:28:10.618Z,5.22
2019-05-01T02:29:10.766Z,5.13
2019-05-01T02:30:10.923Z,5.18
2019-05-01T02:31:27.017Z,5.10
2019-05-01T02:32:13.303Z,5.05
2019-05-01T02:33:11.565Z,5.01
2019-05-01T02:34:11.694Z,5.12
2019-05-01T02:35:11.849Z,5.08
2019-05-01T02:36:12.000Z,5.05
2019-05-01T02:37:12.175Z,5.04
2019-05-01T02:38:12.379Z,5.02
2019-05-01T02:39:12.547Z,4.98
2019-05-01T02:40:12.714Z,5.01
2019-05-01T02:41:12.911Z,5.02
2019-05-01T02:42:13.107Z,5.12
2019-05-01T02:43:13.274Z,5.04
2019-05-01T02:44:13.481Z,5.07
2019-05-01T02:45:13.697Z,5.12
2019-05-01T02:46:13.860Z,5.15
2019-05-01T02:47:14.063Z,5.02
2019-05-01T02:48:14.224Z,5.01
2019-05-01T02:49:14.406Z,4.98
2019-05-01T02:50:14.628Z,4.97
2019-05-01T02:51:14.786Z,4.90
2019-05-01T02:52:14.965Z,4.86
2019-05-01T02:53:15.128Z,4.94
2019-05-01T02:54:15.286Z,4.94
2019-05-01T02:55:15.465Z,4.90
2019-05-01T02:56:15.646Z,5.01
2019-05-01T02:57:15.809Z,5.08
2019-05-01T02:58:15.990Z,5.01
2019-05-01T02:59:16.180Z,5.05
2019-05-01T03:00:16.396Z,5.18
2019-05-01T03:01:16.560Z,5.16
2019-05-01T03:02:16.740Z,5.22
2019-05-01T03:03:16.913Z,5.18
2019-05-01T03:04:17.091Z,5.16
2019-05-01T03:05:17.299Z,5.20
2019-05-01T03:06:17.455Z,5.12
2019-05-01T03:07:17.706Z,5.10
2019-05-01T03:08:17.856Z,5.15
2019-05-01T03:09:18.054Z,5.10
2019-05-01T03:10:18.218Z,5.02
2019-05-01T03:11:18.406Z,5.13
2019-05-01T03:12:18.561Z,5.02
2019-05-01T03:13:18.719Z,5.07
2019-05-01T03:14:18.893Z,5.04
2019-05-01T03:15:19.039Z,5.00
2019-05-01T03:16:19.222Z,5.04
2019-05-01T03:17:19.358Z,4.98
2019-05-01T03:18:19.490Z,5.01
2019-05-01T03:19:19.623Z,5.04
2019-05-01T03:20:19.785Z,4.97
2019-05-01T03:21:19.958Z,5.02
2019-05-01T03:22:20.117Z,4.94
2019-05-01T03:23:20.284Z,4.98
2019-05-01T03:24:20.426Z,4.92
2019-05-01T03:25:20.580Z,4.87
2019-05-01T03:26:20.715Z,4.94
2019-05-01T03:27:20.888Z,4.86
2019-05-01T03:28:21.031Z,5.00
2019-05-01T03:29:21.175Z,4.97
2019-05-01T03:30:21.329Z,5.00
2019-05-01T03:31:21.447Z,5.04
2019-05-01T03:32:21.625Z,4.98
2019-05-01T03:33:21.784Z,4.92
2019-05-01T03:34:21.935Z,5.01
2019-05-01T03:35:22.107Z,4.95
2019-05-01T03:36:22.247Z,4.87
2019-05-01T03:37:22.419Z,4.92
2019-05-01T03:38:22.590Z,5.02
2019-05-01T03:39:22.729Z,4.94
2019-05-01T03:40:22.936Z,5.01
2019-05-01T03:41:23.106Z,4.98
2019-05-01T03:42:23.285Z,5.07
2019-05-01T03:43:23.463Z,5.02
2019-05-01T03:44:23.628Z,5.00
2019-05-01T03:45:23.778Z,4.95
2019-05-01T03:46:23.932Z,5.02
2019-05-01T03:47:24.106Z,4.98
2019-05-01T03:48:24.288Z,5.07
2019-05-01T03:49:24.448Z,5.05
2019-05-01T03:50:24.560Z,5.16
2019-05-01T03:51:24.711Z,5.07
2019-05-01T03:52:24.875Z,5.04
2019-05-01T03:53:25.049Z,5.02
2019-05-01T03:54:25.256Z,5.13
2019-05-01T03:55:25.448Z,5.29
2019-05-01T03:56:25.636Z,5.29
2019-05-01T03:57:25.785Z,5.33
2019-05-01T03:58:25.967Z,5.26
2019-05-01T03:59:26.192Z,5.18
2019-05-01T04:00:26.359Z,5.15
2019-05-01T04:01:26.519Z,5.15
2019-05-01T04:02:33.582Z,5.13
2019-05-01T04:03:28.851Z,5.04
2019-05-01T04:04:27.005Z,5.13
2019-05-01T04:05:27.158Z,5.20
2019-05-01T04:06:27.336Z,5.41
2019-05-01T04:07:27.513Z,5.28
2019-05-01T04:08:27.689Z,5.37
2019-05-01T04:09:27.897Z,5.37
2019-05-01T04:10:28.075Z,5.40
2019-05-01T04:11:28.245Z,5.41
2019-05-01T04:12:28.375Z,5.38
2019-05-01T04:13:28.556Z,5.46
2019-05-01T04:14:28.746Z,5.54
2019-05-01T04:15:28.940Z,5.51
2019-05-01T04:16:29.102Z,5.56
2019-05-01T04:17:30.248Z,5.56
2019-05-01T04:18:29.486Z,5.65
2019-05-01T04:19:29.641Z,5.65
2019-05-01T04:20:29.788Z,5.69
2019-05-01T04:21:29.938Z,5.72
2019-05-01T04:22:30.079Z,5.77
2019-05-01T04:23:30.249Z,5.84
2019-05-01T04:24:30.421Z,5.91
2019-05-01T04:25:30.603Z,5.88
2019-05-01T04:26:30.762Z,5.94
2019-05-01T04:27:30.957Z,5.99
2019-05-01T04:28:31.107Z,6.06
2019-05-01T04:29:31.298Z,6.09
2019-05-01T04:30:31.497Z,6.17
2019-05-01T04:31:31.624Z,6.15
2019-05-01T04:32:50.313Z,6.29
2019-05-01T04:33:32.913Z,6.38
2019-05-01T04:34:32.150Z,6.43
2019-05-01T04:35:32.297Z,6.50
2019-05-01T04:36:32.466Z,6.50
2019-05-01T04:37:32.639Z,6.50
2019-05-01T04:38:33.813Z,6.59
2019-05-01T04:39:32.961Z,6.54
2019-05-01T04:40:34.156Z,6.65
2019-05-01T04:41:34.301Z,6.78
2019-05-01T04:42:33.429Z,6.74
2019-05-01T04:43:33.579Z,6.86
2019-05-01T04:44:33.769Z,6.86
2019-05-01T04:45:33.966Z,6.80
2019-05-01T04:46:34.158Z,6.82
2019-05-01T04:47:34.315Z,6.87
2019-05-01T04:48:34.480Z,6.90
2019-05-01T04:49:34.629Z,6.90
2019-05-01T04:50:34.784Z,7.04
2019-05-01T04:51:34.983Z,7.11
2019-05-01T04:52:35.158Z,7.05
2019-05-01T04:53:35.317Z,7.13
2019-05-01T04:54:35.487Z,7.19
2019-05-01T04:55:35.633Z,7.22
2019-05-01T04:56:35.830Z,7.22
2019-05-01T04:57:35.985Z,7.28
2019-05-01T04:58:36.140Z,7.25
2019-05-01T04:59:36.290Z,7.33
2019-05-01T05:00:36.442Z,7.29
2019-05-01T05:01:36.627Z,7.48
2019-05-01T05:02:36.763Z,7.48
2019-05-01T05:03:36.898Z,7.53
2019-05-01T05:04:37.050Z,7.50
2019-05-01T05:05:37.189Z,7.44
2019-05-01T05:06:37.352Z,7.46
2019-05-01T05:07:37.496Z,7.55
2019-05-01T05:08:37.644Z,7.59
2019-05-01T05:09:37.763Z,7.62
2019-05-01T05:10:37.898Z,7.64
2019-05-01T05:11:38.029Z,7.80
2019-05-01T05:12:38.162Z,7.78
2019-05-01T05:13:38.266Z,7.69
2019-05-01T05:14:38.402Z,7.80
2019-05-01T05:15:38.636Z,7.88
2019-05-01T05:16:38.877Z,7.83
2019-05-01T05:17:39.109Z,7.69
2019-05-01T05:18:39.359Z,7.72
2019-05-01T05:19:39.469Z,7.77
2019-05-01T05:20:39.594Z,7.77
2019-05-01T05:21:39.718Z,7.67
2019-05-01T05:22:39.840Z,7.75
2019-05-01T05:23:40.007Z,7.66
2019-05-01T05:24:40.147Z,7.83
2019-05-01T05:25:40.333Z,7.84
2019-05-01T05:26:40.471Z,7.91
2019-05-01T05:27:40.602Z,7.90
2019-05-01T05:28:40.755Z,7.88
2019-05-01T05:29:40.917Z,7.95
2019-05-01T05:30:41.061Z,7.93
2019-05-01T05:31:41.253Z,7.81
2019-05-01T05:32:41.376Z,7.84
2019-05-01T05:33:41.550Z,7.87
2019-05-01T05:34:41.713Z,7.90
2019-05-01T05:35:41.866Z,8.03
2019-05-01T05:36:42.021Z,8.03
2019-05-01T05:37:42.198Z,7.96
2019-05-01T05:38:42.374Z,8.05
2019-05-01T05:39:42.534Z,7.90
2019-05-01T05:40:42.703Z,8.09
2019-05-01T05:41:42.880Z,8.06
2019-05-01T05:42:43.065Z,7.99
2019-05-01T05:43:43.262Z,8.01
2019-05-01T05:44:43.424Z,8.18
2019-05-01T05:45:43.591Z,8.17
2019-05-01T05:46:43.760Z,8.17
2019-05-01T05:47:43.926Z,8.08
2019-05-01T05:48:44.095Z,8.01
2019-05-01T05:49:44.302Z,8.09
2019-05-01T05:50:44.507Z,8.08
2019-05-01T05:51:44.656Z,8.11
2019-05-01T05:52:44.832Z,8.17
2019-05-01T05:53:45.017Z,8.13
2019-05-01T05:54:45.233Z,8.20
2019-05-01T05:55:45.414Z,8.32
2019-05-01T05:56:45.581Z,8.35
2019-05-01T05:57:45.749Z,8.31
2019-05-01T05:58:45.901Z,8.50
2019-05-01T05:59:46.142Z,8.44
2019-05-01T06:00:46.295Z,8.59
2019-05-01T06:01:46.485Z,8.59
2019-05-01T06:02:46.664Z,8.59
2019-05-01T06:03:46.820Z,8.64
2019-05-01T06:04:46.994Z,8.63
2019-05-01T06:05:47.162Z,8.45
2019-05-01T06:06:47.347Z,8.45
2019-05-01T06:07:47.510Z,8.39
2019-05-01T06:08:47.669Z,8.38
2019-05-01T06:09:48.513Z,8.42
2019-05-01T06:10:49.042Z,8.52
2019-05-01T06:11:48.300Z,8.41
2019-05-01T06:12:48.662Z,8.54
2019-05-01T06:13:52.655Z,8.45
2019-05-01T06:14:49.758Z,8.50
2019-05-01T06:15:49.268Z,8.57
2019-05-01T06:16:52.196Z,8.63
2019-05-01T06:17:50.340Z,8.57
2019-05-01T06:18:49.575Z,8.42
2019-05-01T06:19:50.870Z,8.38
2019-05-01T06:20:50.901Z,8.42
2019-05-01T06:21:50.165Z,8.59
2019-05-01T06:22:50.306Z,8.60
2019-05-01T06:23:52.700Z,8.63
2019-05-01T06:24:52.674Z,8.72
2019-05-01T06:25:54.127Z,8.64
2019-05-01T06:26:53.135Z,8.50
2019-05-01T06:27:51.221Z,8.36
2019-05-01T06:28:51.372Z,8.38
2019-05-01T06:29:51.489Z,8.39
2019-05-01T06:30:51.637Z,8.46
2019-05-01T06:31:54.011Z,8.44
2019-05-01T06:32:53.907Z,8.68
2019-05-01T06:33:52.981Z,8.49
2019-05-01T06:34:53.306Z,8.71
2019-05-01T06:35:52.508Z,8.71
2019-05-01T06:36:52.772Z,8.79
2019-05-01T06:37:56.055Z,8.64
2019-05-01T06:38:55.029Z,8.63
2019-05-01T06:39:53.210Z,8.68
2019-05-01T06:40:58.117Z,8.75
2019-05-01T06:41:54.579Z,8.86
2019-05-01T06:42:53.831Z,8.72
2019-05-01T06:43:56.985Z,8.78
2019-05-01T06:44:56.208Z,8.69
2019-05-01T06:45:54.429Z,8.64
2019-05-01T06:46:58.291Z,8.63
2019-05-01T06:47:55.825Z,8.71
2019-05-01T06:48:54.985Z,8.66
2019-05-01T06:49:55.146Z,8.72
2019-05-01T06:50:55.340Z,8.79
2019-05-01T06:51:55.505Z,8.71
2019-05-01T06:52:55.679Z,8.74
2019-05-01T06:53:55.840Z,8.78
2019-05-01T06:54:55.988Z,8.81
2019-05-01T06:55:56.145Z,8.96
2019-05-01T06:56:56.303Z,9.00
2019-05-01T06:57:56.453Z,9.05
2019-05-01T06:58:56.638Z,9.09
2019-05-01T06:59:56.827Z,9.02
2019-05-01T07:00:56.963Z,9.27
2019-05-01T07:01:58.462Z,9.39
2019-05-01T07:02:58.287Z,9.36
2019-05-01T07:04:03.642Z,9.42
2019-05-01T07:04:59.787Z,9.54
2019-05-01T07:05:57.891Z,9.51
2019-05-01T07:07:01.971Z,9.54
2019-05-01T07:07:58.288Z,9.62
2019-05-01T07:08:58.428Z,9.74
2019-05-01T07:09:58.584Z,9.76
2019-05-01T07:10:58.730Z,9.54
2019-05-01T07:11:58.889Z,9.55
2019-05-01T07:12:59.851Z,9.22
2019-05-01T07:14:01.289Z,9.24
2019-05-01T07:14:59.522Z,9.42
2019-05-01T07:16:03.219Z,9.52
2019-05-01T07:16:59.922Z,9.69
2019-05-01T07:18:00.083Z,9.66
2019-05-01T07:19:05.726Z,9.77
2019-05-01T07:20:02.501Z,9.81
2019-05-01T07:21:00.758Z,9.81
2019-05-01T07:22:01.758Z,9.82
2019-05-01T07:23:02.034Z,9.70
2019-05-01T07:24:01.163Z,9.66
2019-05-01T07:25:04.129Z,9.84
2019-05-01T07:26:02.502Z,9.87
2019-05-01T07:27:01.611Z,9.77
2019-05-01T07:28:01.796Z,9.85
2019-05-01T07:29:06.061Z,9.81
2019-05-01T07:30:03.127Z,9.54
2019-05-01T07:31:05.034Z,9.67
2019-05-01T07:32:06.340Z,9.81
2019-05-01T07:33:03.602Z,9.95
2019-05-01T07:34:02.728Z,10.12
2019-05-01T07:35:03.987Z,10.17
2019-05-01T07:36:06.964Z,10.03
2019-05-01T07:37:04.194Z,10.02
2019-05-01T07:38:03.471Z,9.95
2019-05-01T07:39:03.430Z,9.88
2019-05-01T07:40:03.590Z,9.95
2019-05-01T07:41:05.206Z,9.92
2019-05-01T07:42:07.810Z,10.02
2019-05-01T07:43:04.113Z,9.88
2019-05-01T07:44:04.276Z,9.94
2019-05-01T07:45:08.376Z,9.59
2019-05-01T07:46:05.587Z,9.36
2019-05-01T07:47:04.721Z,9.40
2019-05-01T07:48:05.595Z,9.40
2019-05-01T07:49:06.112Z,9.49
2019-05-01T07:50:05.261Z,9.67
2019-05-01T07:51:07.109Z,9.54
2019-05-01T07:52:06.563Z,9.31
2019-05-01T07:53:05.729Z,9.29
2019-05-01T07:54:08.803Z,9.47
2019-05-01T07:55:07.132Z,9.40
2019-05-01T07:56:06.251Z,9.52
2019-05-01T07:57:06.405Z,9.66
2019-05-01T07:58:10.517Z,9.81
2019-05-01T07:59:07.668Z,9.74
2019-05-01T08:00:08.528Z,9.92
2019-05-01T08:01:07.989Z,10.07
2019-05-01T08:02:07.119Z,10.17
2019-05-01T08:03:08.347Z,10.20
2019-05-01T08:04:07.510Z,10.23
2019-05-01T08:05:09.959Z,10.24
2019-05-01T08:06:08.823Z,10.42
2019-05-01T08:07:08.099Z,10.49
2019-05-01T08:08:09.575Z,10.30
2019-05-01T08:09:11.355Z,10.42
2019-05-01T08:10:10.612Z,10.24
2019-05-01T08:11:10.346Z,10.25
2019-05-01T08:12:09.973Z,10.27
2019-05-01T08:13:09.088Z,10.21
2019-05-01T08:14:12.001Z,10.09
2019-05-01T08:15:11.440Z,10.07
2019-05-01T08:16:09.692Z,10.13
2019-05-01T08:17:12.919Z,10.27
2019-05-01T08:18:11.981Z,10.43
2019-05-01T08:19:10.195Z,10.49
2019-05-01T08:20:14.864Z,10.27
2019-05-01T08:21:11.477Z,9.87
2019-05-01T08:22:10.630Z,9.80
2019-05-01T08:23:12.111Z,9.84
2019-05-01T08:24:11.968Z,9.74
2019-05-01T08:25:11.203Z,10.03
2019-05-01T08:26:11.359Z,9.97
2019-05-01T08:27:15.572Z,10.06
2019-05-01T08:28:12.640Z,9.99
2019-05-01T08:29:11.897Z,10.12
2019-05-01T08:30:12.838Z,10.41
2019-05-01T08:31:14.292Z,10.51
2019-05-01T08:32:12.505Z,10.49
2019-05-01T08:33:14.544Z,10.33
2019-05-01T08:34:13.820Z,10.38
2019-05-01T08:35:12.950Z,10.33
2019-05-01T08:36:13.510Z,10.38
2019-05-01T08:37:17.802Z,10.39
2019-05-01T08:38:14.360Z,10.41
2019-05-01T08:39:13.983Z,10.75
2019-05-01T08:40:15.956Z,10.90
2019-05-01T08:41:16.086Z,11.00
2019-05-01T08:42:14.244Z,10.98
2019-05-01T08:43:18.105Z,10.97
2019-05-01T08:44:15.533Z,10.69
2019-05-01T08:45:14.670Z,10.57
2019-05-01T08:46:16.541Z,10.64
2019-05-01T08:47:16.043Z,10.80
2019-05-01T08:48:15.171Z,10.76
2019-05-01T08:49:15.341Z,10.76
2019-05-01T08:50:19.857Z,10.61
2019-05-01T08:51:16.633Z,10.38
2019-05-01T08:52:15.807Z,10.24
2019-05-01T08:53:18.117Z,10.12
2019-05-01T08:54:18.098Z,10.13
2019-05-01T08:55:16.215Z,10.25
2019-05-01T08:56:16.899Z,10.34
2019-05-01T08:57:18.542Z,10.49
2019-05-01T08:58:16.704Z,10.59
2019-05-01T08:59:19.418Z,10.64
2019-05-01T09:00:19.067Z,10.67
2019-05-01T09:01:17.195Z,10.84
2019-05-01T09:02:17.369Z,10.92
2019-05-01T09:03:18.839Z,11.05
2019-05-01T09:04:18.903Z,11.00
2019-05-01T09:05:28.207Z,10.97
2019-05-01T09:06:20.067Z,11.12
2019-05-01T09:07:19.137Z,11.25
2019-05-01T09:08:19.358Z,11.27
2019-05-01T09:09:18.486Z,11.25
2019-05-01T09:10:21.716Z,11.58
2019-05-01T09:11:19.868Z,11.74
2019-05-01T09:12:18.983Z,11.78
2019-05-01T09:13:23.778Z,11.83
2019-05-01T09:14:20.292Z,11.77
2019-05-01T09:15:19.421Z,11.85
2019-05-01T09:16:23.455Z,11.80
2019-05-01T09:17:20.730Z,11.80
2019-05-01T09:18:19.850Z,11.65
2019-05-01T09:19:20.028Z,11.45
2019-05-01T09:20:20.197Z,11.58
2019-05-01T09:21:20.331Z,11.63
2019-05-01T09:22:20.475Z,11.53
2019-05-01T09:23:20.642Z,11.58
2019-05-01T09:24:23.215Z,11.33
2019-05-01T09:25:22.956Z,11.08
2019-05-01T09:26:21.189Z,11.05
2019-05-01T09:27:23.829Z,11.25
2019-05-01T09:28:23.607Z,11.27
2019-05-01T09:29:21.854Z,11.43
2019-05-01T09:30:26.813Z,11.63
2019-05-01T09:31:23.223Z,11.80
2019-05-01T09:32:23.466Z,11.89
2019-05-01T09:33:26.106Z,11.81
2019-05-01T09:34:23.790Z,11.74
2019-05-01T09:35:22.902Z,11.91
2019-05-01T09:36:23.086Z,11.96
2019-05-01T09:37:23.263Z,11.96
2019-05-01T09:38:23.428Z,12.03
2019-05-01T09:39:23.603Z,12.02
2019-05-01T09:40:23.751Z,11.93
2019-05-01T09:41:23.959Z,12.11
2019-05-01T09:42:25.376Z,11.83
2019-05-01T09:43:24.309Z,11.56
2019-05-01T09:44:24.458Z,11.38
2019-05-01T09:45:24.640Z,11.38
2019-05-01T09:46:24.819Z,11.41
2019-05-01T09:47:24.972Z,11.49
2019-05-01T09:48:25.149Z,11.00
2019-05-01T09:49:25.287Z,11.26
2019-05-01T09:50:25.991Z,11.55
2019-05-01T09:51:26.630Z,11.88
2019-05-01T09:52:25.746Z,12.17
2019-05-01T09:53:29.724Z,11.96
2019-05-01T09:54:27.025Z,11.68
2019-05-01T09:55:26.174Z,11.85
2019-05-01T09:56:26.336Z,11.93
2019-05-01T09:57:26.533Z,12.00
2019-05-01T09:58:26.703Z,12.11
2019-05-01T09:59:26.862Z,12.20
2019-05-01T10:00:27.024Z,12.36
2019-05-01T10:01:31.712Z,12.62
2019-05-01T10:02:29.367Z,12.83
2019-05-01T10:03:27.488Z,13.05
2019-05-01T10:04:30.170Z,12.76
2019-05-01T10:05:29.357Z,12.68
2019-05-01T10:06:27.959Z,12.78
2019-05-01T10:07:29.109Z,13.01
2019-05-01T10:08:29.288Z,12.95
2019-05-01T10:09:28.426Z,12.62
2019-05-01T10:10:29.326Z,12.69
2019-05-01T10:11:29.785Z,12.73
2019-05-01T10:12:28.947Z,12.63
2019-05-01T10:13:29.180Z,12.94
2019-05-01T10:14:31.602Z,13.12
2019-05-01T10:15:31.543Z,13.11
2019-05-01T10:16:29.677Z,13.40
2019-05-01T10:17:29.856Z,13.64
2019-05-01T10:18:30.032Z,14.01
2019-05-01T10:19:30.195Z,14.03
2019-05-01T10:20:30.345Z,14.20
2019-05-01T10:21:30.539Z,14.36
2019-05-01T10:22:32.990Z,14.58
2019-05-01T10:23:32.983Z,14.59
2019-05-01T10:24:32.114Z,14.62
2019-05-01T10:25:33.312Z,14.85
2019-05-01T10:26:31.559Z,15.23
2019-05-01T10:27:35.701Z,15.26
2019-05-01T10:28:32.929Z,14.82
2019-05-01T10:29:32.056Z,14.63
2019-05-01T10:30:36.279Z,14.45
2019-05-01T10:31:33.436Z,14.43
2019-05-01T10:32:32.569Z,14.67
2019-05-01T10:33:32.970Z,14.94
2019-05-01T10:34:32.956Z,14.92
2019-05-01T10:35:42.385Z,15.08
2019-05-01T10:36:35.345Z,14.37
2019-05-01T10:37:35.457Z,13.82
2019-05-01T10:38:33.806Z,14.34
2019-05-01T10:39:33.963Z,14.44
2019-05-01T10:40:34.376Z,14.20
2019-05-01T10:41:35.360Z,14.52
2019-05-01T10:42:34.488Z,14.86
2019-05-01T10:43:34.688Z,14.96
2019-05-01T10:44:34.850Z,14.93
2019-05-01T10:45:35.019Z,14.67
2019-05-01T10:46:35.203Z,14.58
2019-05-01T10:47:35.391Z,13.76
2019-05-01T10:48:35.579Z,13.71
2019-05-01T10:49:35.745Z,13.64
2019-05-01T10:50:35.912Z,14.05
2019-05-01T10:51:36.084Z,14.19
2019-05-01T10:52:36.266Z,14.18
2019-05-01T10:53:36.452Z,14.45
2019-05-01T10:54:36.630Z,14.58
2019-05-01T10:55:36.830Z,14.66
2019-05-01T10:56:37.047Z,14.66
2019-05-01T10:57:40.646Z,14.59
2019-05-01T10:58:38.482Z,15.08
2019-05-01T10:59:37.617Z,15.96
2019-05-01T11:00:37.826Z,16.50
2019-05-01T11:01:38.005Z,16.57
2019-05-01T11:02:38.249Z,17.24
2019-05-01T11:03:38.433Z,17.41
2019-05-01T11:04:38.643Z,17.76
2019-05-01T11:05:38.824Z,18.23
2019-05-01T11:06:39.015Z,18.76
2019-05-01T11:07:39.192Z,19.52
2019-05-01T11:08:39.410Z,19.87
2019-05-01T11:09:39.571Z,19.90
2019-05-01T11:10:39.740Z,19.84
2019-05-01T11:11:39.922Z,19.72
2019-05-01T11:12:40.106Z,20.02
2019-05-01T11:13:40.240Z,20.36
2019-05-01T11:14:40.425Z,21.03
2019-05-01T11:15:40.691Z,21.20
2019-05-01T11:16:40.724Z,21.15
2019-05-01T11:17:40.947Z,20.68
2019-05-01T11:18:41.129Z,19.72
2019-05-01T11:19:41.342Z,19.84
2019-05-01T11:20:41.494Z,19.30
2019-05-01T11:21:41.690Z,19.66
2019-05-01T11:22:41.854Z,19.92
2019-05-01T11:23:42.022Z,19.34
2019-05-01T11:24:42.209Z,19.66
2019-05-01T11:25:44.644Z,20.18
2019-05-01T11:26:42.520Z,19.85
2019-05-01T11:27:42.690Z,18.43
2019-05-01T11:28:42.845Z,18.68
2019-05-01T11:29:43.020Z,19.17
2019-05-01T11:30:43.180Z,18.37
2019-05-01T11:31:43.407Z,17.97
2019-05-01T11:32:43.654Z,17.10
2019-05-01T11:33:43.815Z,17.24
2019-05-01T11:34:43.988Z,17.97
2019-05-01T11:35:44.188Z,18.21
2019-05-01T11:36:44.369Z,18.52
2019-05-01T11:37:44.544Z,18.66
2019-05-01T11:38:44.714Z,18.48
2019-05-01T11:39:44.928Z,18.96
2019-05-01T11:40:45.086Z,19.08
2019-05-01T11:41:45.240Z,17.13
2019-05-01T11:42:45.422Z,16.66
2019-05-01T11:43:45.590Z,17.14
2019-05-01T11:44:46.786Z,17.65
2019-05-01T11:45:45.937Z,17.72
2019-05-01T11:46:46.108Z,17.57
2019-05-01T11:47:46.294Z,16.99
2019-05-01T11:48:46.471Z,17.52
2019-05-01T11:49:46.652Z,18.03
2019-05-01T11:50:46.858Z,18.26
2019-05-01T11:51:47.050Z,18.61
2019-05-01T11:52:47.217Z,18.48
2019-05-01T11:53:47.392Z,18.39
2019-05-01T11:54:47.577Z,18.42
2019-05-01T11:55:47.763Z,18.58
2019-05-01T11:56:47.905Z,18.96
2019-05-01T11:57:48.092Z,19.38
2019-05-01T11:58:48.213Z,19.62
2019-05-01T11:59:48.352Z,19.78
2019-05-01T12:00:48.505Z,19.82
2019-05-01T12:01:48.697Z,20.12
2019-05-01T12:02:48.868Z,19.56
2019-05-01T12:03:49.006Z,18.61
2019-05-01T12:04:49.268Z,18.57
2019-05-01T12:05:49.465Z,18.48
2019-05-01T12:06:49.628Z,18.79
2019-05-01T12:07:49.791Z,18.85
2019-05-01T12:08:49.940Z,18.70
2019-05-01T12:09:50.088Z,19.29
2019-05-01T12:10:50.290Z,19.24
2019-05-01T12:11:50.444Z,19.71
2019-05-01T12:12:50.596Z,20.18
2019-05-01T12:13:50.726Z,19.78
2019-05-01T12:14:50.854Z,19.77
2019-05-01T12:15:51.008Z,20.24
2019-05-01T12:16:51.169Z,20.63
2019-05-01T12:17:51.332Z,20.49
2019-05-01T12:18:51.486Z,20.04
2019-05-01T12:19:51.704Z,20.10
2019-05-01T12:20:51.881Z,19.45
2019-05-01T12:21:52.299Z,18.91
2019-05-01T12:22:52.207Z,18.27
2019-05-01T12:23:52.376Z,18.63
2019-05-01T12:24:52.561Z,19.17
2019-05-01T12:25:52.744Z,19.62
2019-05-01T12:26:52.929Z,20.14
2019-05-01T12:27:53.103Z,19.89
2019-05-01T12:28:53.248Z,20.00
2019-05-01T12:29:53.410Z,18.98
2019-05-01T12:30:53.546Z,19.08
2019-05-01T12:31:53.726Z,18.86
2019-05-01T12:32:53.879Z,19.39
2019-05-01T12:33:54.021Z,19.71
2019-05-01T12:34:54.168Z,20.22
2019-05-01T12:35:54.302Z,20.52
2019-05-01T12:36:54.467Z,21.08
2019-05-01T12:37:55.454Z,21.60
2019-05-01T12:38:55.717Z,22.01
2019-05-01T12:39:54.836Z,22.43
2019-05-01T12:40:54.966Z,22.33
2019-05-01T12:41:55.134Z,22.43
2019-05-01T12:42:55.242Z,21.32
2019-05-01T12:43:55.421Z,20.15
2019-05-01T12:44:55.577Z,20.67
2019-05-01T12:45:55.769Z,20.58
2019-05-01T12:46:55.908Z,20.22
2019-05-01T12:47:56.086Z,20.93
2019-05-01T12:48:56.224Z,21.72
2019-05-01T12:49:56.374Z,21.81
2019-05-01T12:50:56.521Z,22.31
2019-05-01T12:52:09.628Z,22.51
2019-05-01T12:52:58.056Z,21.85
2019-05-01T12:53:58.019Z,21.51
2019-05-01T12:54:57.254Z,21.30
2019-05-01T12:55:57.288Z,20.37
2019-05-01T12:56:57.451Z,20.78
2019-05-01T12:57:57.597Z,21.63
2019-05-01T12:58:57.770Z,21.58
2019-05-01T13:00:08.543Z,21.19
2019-05-01T13:01:00.033Z,21.19
2019-05-01T13:01:58.265Z,21.25
2019-05-01T13:02:58.416Z,21.54
2019-05-01T13:03:58.588Z,21.85
2019-05-01T13:04:58.750Z,21.50
2019-05-01T13:05:58.958Z,19.47
2019-05-01T13:06:59.108Z,19.17
2019-05-01T13:07:59.260Z,19.63
2019-05-01T13:08:59.440Z,19.84
2019-05-01T13:09:59.611Z,20.49
2019-05-01T13:10:59.740Z,21.32